sensor_id;sensor_type;location;lat;lon;timestamp;temperature;humidity
46492;DHT22;32206;51.446;6.792;2023-02-26T00:03:14;1.40;26.00
46492;DHT22;32206;51.446;6.792;2023-02-26T00:05:40;1.30;32.30
46492;DHT22;32206;51.446;6.792;2023-02-26T00:08:05;1.30;37.00
46492;DHT22;32206;51.446;6.792;2023-02-26T00:10:31;1.40;38.10
46492;DHT22;32206;51.446;6.792;2023-02-26T00:12:57;1.30;44.00
46492;DHT22;32206;51.446;6.792;2023-02-26T00:18:45;1.30;44.80
46492;DHT22;32206;51.446;6.792;2023-02-26T00:21:21;1.30;50.00
46492;DHT22;32206;51.446;6.792;2023-02-26T00:23:47;1.30;50.50
46492;DHT22;32206;51.446;6.792;2023-02-26T00:26:13;1.30;53.50
46492;DHT22;32206;51.446;6.792;2023-02-26T00:28:39;1.30;57.10
46492;DHT22;32206;51.446;6.792;2023-02-26T00:31:06;1.40;55.60
46492;DHT22;32206;51.446;6.792;2023-02-26T00:33:32;1.40;56.60
46492;DHT22;32206;51.446;6.792;2023-02-26T00:42:42;1.50;54.10
46492;DHT22;32206;51.446;6.792;2023-02-26T00:45:09;1.50;52.50
46492;DHT22;32206;51.446;6.792;2023-02-26T01:06:12;1.50;63.10
46492;DHT22;32206;51.446;6.792;2023-02-26T01:08:46;1.40;62.50
46492;DHT22;32206;51.446;6.792;2023-02-26T01:11:14;1.40;65.00
46492;DHT22;32206;51.446;6.792;2023-02-26T01:13:40;1.40;66.40
46492;DHT22;32206;51.446;6.792;2023-02-26T01:19:40;1.40;64.10
46492;DHT22;32206;51.446;6.792;2023-02-26T01:28:43;1.30;61.30
46492;DHT22;32206;51.446;6.792;2023-02-26T01:31:19;1.30;57.80
46492;DHT22;32206;51.446;6.792;2023-02-26T01:33:54;1.30;62.10
46492;DHT22;32206;51.446;6.792;2023-02-26T01:36:27;1.30;54.40
46492;DHT22;32206;51.446;6.792;2023-02-26T01:41:50;1.20;60.60
46492;DHT22;32206;51.446;6.792;2023-02-26T01:51:00;1.10;66.80
46492;DHT22;32206;51.446;6.792;2023-02-26T01:56:56;1.00;68.90
46492;DHT22;32206;51.446;6.792;2023-02-26T01:59:23;1.00;75.40
46492;DHT22;32206;51.446;6.792;2023-02-26T02:05:18;0.90;83.90
46492;DHT22;32206;51.446;6.792;2023-02-26T02:07:46;0.90;88.50
46492;DHT22;32206;51.446;6.792;2023-02-26T02:10:12;0.90;90.50
46492;DHT22;32206;51.446;6.792;2023-02-26T02:12:54;0.80;92.10
46492;DHT22;32206;51.446;6.792;2023-02-26T02:34:38;0.60;86.70
46492;DHT22;32206;51.446;6.792;2023-02-26T02:43:31;0.50;85.20
46492;DHT22;32206;51.446;6.792;2023-02-26T02:49:28;0.50;82.40
46492;DHT22;32206;51.446;6.792;2023-02-26T02:58:16;0.40;78.60
46492;DHT22;32206;51.446;6.792;2023-02-26T03:00:49;0.40;80.80
46492;DHT22;32206;51.446;6.792;2023-02-26T03:05:44;0.40;78.20
46492;DHT22;32206;51.446;6.792;2023-02-26T03:08:12;0.40;79.20
46492;DHT22;32206;51.446;6.792;2023-02-26T03:10:39;0.30;79.90
46492;DHT22;32206;51.446;6.792;2023-02-26T03:13:05;0.40;82.90
46492;DHT22;32206;51.446;6.792;2023-02-26T03:15:38;0.30;84.30
46492;DHT22;32206;51.446;6.792;2023-02-26T03:18:44;0.30;90.80
46492;DHT22;32206;51.446;6.792;2023-02-26T03:21:26;0.50;91.90
46492;DHT22;32206;51.446;6.792;2023-02-26T03:27:39;0.30;94.30
46492;DHT22;32206;51.446;6.792;2023-02-26T03:30:13;0.60;94.90
46492;DHT22;32206;51.446;6.792;2023-02-26T03:37:54;0.20;97.20
46492;DHT22;32206;51.446;6.792;2023-02-26T03:43:53;0.20;97.90
46492;DHT22;32206;51.446;6.792;2023-02-26T03:46:26;0.40;96.70
46492;DHT22;32206;51.446;6.792;2023-02-26T03:48:55;0.20;96.80
46492;DHT22;32206;51.446;6.792;2023-02-26T03:51:23;0.20;96.50
46492;DHT22;32206;51.446;6.792;2023-02-26T04:00:23;0.10;95.90
46492;DHT22;32206;51.446;6.792;2023-02-26T04:05:58;0.00;97.30
46492;DHT22;32206;51.446;6.792;2023-02-26T04:11:53;0.00;96.70
46492;DHT22;32206;51.446;6.792;2023-02-26T04:14:22;0.00;97.00
46492;DHT22;32206;51.446;6.792;2023-02-26T04:16:47;0.00;96.20
46492;DHT22;32206;51.446;6.792;2023-02-26T04:19:13;0.00;94.50
46492;DHT22;32206;51.446;6.792;2023-02-26T04:21:39;0.30;94.10
46492;DHT22;32206;51.446;6.792;2023-02-26T04:30:49;-0.10;92.50
46492;DHT22;32206;51.446;6.792;2023-02-26T04:36:36;-0.10;88.80
46492;DHT22;32206;51.446;6.792;2023-02-26T04:39:02;-0.10;88.30
46492;DHT22;32206;51.446;6.792;2023-02-26T04:41:29;-0.10;90.10
46492;DHT22;32206;51.446;6.792;2023-02-26T04:43:55;-0.20;90.30
46492;DHT22;32206;51.446;6.792;2023-02-26T04:49:55;-0.20;91.10
46492;DHT22;32206;51.446;6.792;2023-02-26T04:52:21;-0.30;91.20
46492;DHT22;32206;51.446;6.792;2023-02-26T04:54:47;0.10;90.20
46492;DHT22;32206;51.446;6.792;2023-02-26T04:57:12;-0.30;88.70
46492;DHT22;32206;51.446;6.792;2023-02-26T05:03:00;-0.30;90.50
46492;DHT22;32206;51.446;6.792;2023-02-26T05:05:26;-0.30;87.40
46492;DHT22;32206;51.446;6.792;2023-02-26T05:07:51;-0.40;88.60
46492;DHT22;32206;51.446;6.792;2023-02-26T05:10:20;-0.40;87.70
46492;DHT22;32206;51.446;6.792;2023-02-26T05:12:45;-0.40;86.40
46492;DHT22;32206;51.446;6.792;2023-02-26T05:15:11;-0.30;87.80
46492;DHT22;32206;51.446;6.792;2023-02-26T05:21:27;-0.40;85.40
46492;DHT22;32206;51.446;6.792;2023-02-26T05:23:53;-0.50;85.00
46492;DHT22;32206;51.446;6.792;2023-02-26T05:26:50;-0.50;80.00
46492;DHT22;32206;51.446;6.792;2023-02-26T05:32:38;-0.50;84.40
46492;DHT22;32206;51.446;6.792;2023-02-26T05:35:04;-0.50;81.00
46492;DHT22;32206;51.446;6.792;2023-02-26T05:37:29;-0.50;78.50
46492;DHT22;32206;51.446;6.792;2023-02-26T05:43:42;-0.50;76.30
46492;DHT22;32206;51.446;6.792;2023-02-26T05:46:07;-0.50;75.10
46492;DHT22;32206;51.446;6.792;2023-02-26T05:51:55;-0.60;75.50
46492;DHT22;32206;51.446;6.792;2023-02-26T05:54:20;-0.60;75.40
46492;DHT22;32206;51.446;6.792;2023-02-26T06:00:08;-0.60;72.40
46492;DHT22;32206;51.446;6.792;2023-02-26T06:09:19;-0.70;70.10
46492;DHT22;32206;51.446;6.792;2023-02-26T06:11:45;-0.60;66.80
46492;DHT22;32206;51.446;6.792;2023-02-26T06:14:11;-0.70;63.20
46492;DHT22;32206;51.446;6.792;2023-02-26T06:16:37;-0.70;67.10
46492;DHT22;32206;51.446;6.792;2023-02-26T06:19:02;-0.80;68.00
46492;DHT22;32206;51.446;6.792;2023-02-26T06:21:28;-0.60;75.00
46492;DHT22;32206;51.446;6.792;2023-02-26T06:23:54;-0.70;68.90
46492;DHT22;32206;51.446;6.792;2023-02-26T06:26:19;-0.20;71.00
46492;DHT22;32206;51.446;6.792;2023-02-26T06:28:45;-0.70;64.90
46492;DHT22;32206;51.446;6.792;2023-02-26T06:31:11;-0.70;61.50
46492;DHT22;32206;51.446;6.792;2023-02-26T06:36:59;-0.70;61.00
46492;DHT22;32206;51.446;6.792;2023-02-26T06:39:25;-0.70;62.00
46492;DHT22;32206;51.446;6.792;2023-02-26T06:41:50;-0.70;63.70
46492;DHT22;32206;51.446;6.792;2023-02-26T06:44:16;-0.80;65.50
46492;DHT22;32206;51.446;6.792;2023-02-26T06:46:42;-0.80;69.90
46492;DHT22;32206;51.446;6.792;2023-02-26T06:52:30;-0.80;69.10
46492;DHT22;32206;51.446;6.792;2023-02-26T06:54:56;-0.80;70.00
46492;DHT22;32206;51.446;6.792;2023-02-26T07:00:44;-0.80;71.90
46492;DHT22;32206;51.446;6.792;2023-02-26T07:06:38;-0.70;67.90
46492;DHT22;32206;51.446;6.792;2023-02-26T07:09:04;-0.50;64.70
46492;DHT22;32206;51.446;6.792;2023-02-26T07:15:07;-0.50;75.10
46492;DHT22;32206;51.446;6.792;2023-02-26T07:17:33;-0.50;68.10
46492;DHT22;32206;51.446;6.792;2023-02-26T07:23:21;-0.40;72.70
46492;DHT22;32206;51.446;6.792;2023-02-26T07:25:48;-0.30;64.90
46492;DHT22;32206;51.446;6.792;2023-02-26T07:28:14;-0.20;61.40
46492;DHT22;32206;51.446;6.792;2023-02-26T07:30:40;-0.20;79.60
46492;DHT22;32206;51.446;6.792;2023-02-26T07:39:51;0.10;58.60
46492;DHT22;32206;51.446;6.792;2023-02-26T07:42:17;0.20;57.90
46492;DHT22;32206;51.446;6.792;2023-02-26T07:44:43;0.30;47.10
46492;DHT22;32206;51.446;6.792;2023-02-26T07:47:09;0.70;41.80
46492;DHT22;32206;51.446;6.792;2023-02-26T07:49:35;0.40;30.10
46492;DHT22;32206;51.446;6.792;2023-02-26T07:52:01;0.50;29.20
46492;DHT22;32206;51.446;6.792;2023-02-26T07:54:27;0.50;25.30
46492;DHT22;32206;51.446;6.792;2023-02-26T08:00:15;0.50;23.00
46492;DHT22;32206;51.446;6.792;2023-02-26T08:02:41;0.50;20.50
46492;DHT22;32206;51.446;6.792;2023-02-26T08:08:29;0.60;20.10
46492;DHT22;32206;51.446;6.792;2023-02-26T08:10:54;0.70;12.80
46492;DHT22;32206;51.446;6.792;2023-02-26T08:13:20;0.70;10.40
46492;DHT22;32206;51.446;6.792;2023-02-26T08:15:47;0.80;3.70
46492;DHT22;32206;51.446;6.792;2023-02-26T08:18:12;0.90;1.00
46492;DHT22;32206;51.446;6.792;2023-02-26T08:20:38;1.00;1.00
46492;DHT22;32206;51.446;6.792;2023-02-26T08:23:04;1.20;1.00
46492;DHT22;32206;51.446;6.792;2023-02-26T08:25:29;1.10;1.00
46492;DHT22;32206;51.446;6.792;2023-02-26T08:31:17;1.20;1.00
46492;DHT22;32206;51.446;6.792;2023-02-26T08:33:43;1.20;1.00
46492;DHT22;32206;51.446;6.792;2023-02-26T08:36:10;1.20;1.00
46492;DHT22;32206;51.446;6.792;2023-02-26T08:38:35;1.30;1.00
46492;DHT22;32206;51.446;6.792;2023-02-26T08:41:01;1.30;1.00
46492;DHT22;32206;51.446;6.792;2023-02-26T08:43:27;1.50;1.00
46492;DHT22;32206;51.446;6.792;2023-02-26T08:45:55;1.60;1.00
46492;DHT22;32206;51.446;6.792;2023-02-26T08:48:22;1.60;1.00
46492;DHT22;32206;51.446;6.792;2023-02-26T08:50:48;1.60;1.00
46492;DHT22;32206;51.446;6.792;2023-02-26T08:53:14;1.70;1.00
46492;DHT22;32206;51.446;6.792;2023-02-26T08:55:40;1.90;1.00
46492;DHT22;32206;51.446;6.792;2023-02-26T08:58:05;2.10;1.00
46492;DHT22;32206;51.446;6.792;2023-02-26T09:00:32;2.00;1.00
46492;DHT22;32206;51.446;6.792;2023-02-26T09:02:58;2.00;1.00
46492;DHT22;32206;51.446;6.792;2023-02-26T09:05:24;2.10;1.00
46492;DHT22;32206;51.446;6.792;2023-02-26T09:07:50;2.00;1.00
46492;DHT22;32206;51.446;6.792;2023-02-26T09:10:15;2.40;1.00
46492;DHT22;32206;51.446;6.792;2023-02-26T09:12:41;2.20;1.00
46492;DHT22;32206;51.446;6.792;2023-02-26T09:15:09;2.30;99.90
46492;DHT22;32206;51.446;6.792;2023-02-26T09:17:35;2.30;1.00
46492;DHT22;32206;51.446;6.792;2023-02-26T09:20:01;2.40;99.90
46492;DHT22;32206;51.446;6.792;2023-02-26T09:22:28;2.40;99.90
46492;DHT22;32206;51.446;6.792;2023-02-26T09:24:53;2.60;99.90
46492;DHT22;32206;51.446;6.792;2023-02-26T09:27:19;2.70;99.90
46492;DHT22;32206;51.446;6.792;2023-02-26T09:29:45;2.80;99.90
46492;DHT22;32206;51.446;6.792;2023-02-26T09:32:10;2.70;99.90
46492;DHT22;32206;51.446;6.792;2023-02-26T09:34:37;2.80;99.90
46492;DHT22;32206;51.446;6.792;2023-02-26T09:37:04;2.80;99.90
46492;DHT22;32206;51.446;6.792;2023-02-26T09:39:30;2.80;1.00
46492;DHT22;32206;51.446;6.792;2023-02-26T09:42:02;3.10;32.10
46492;DHT22;32206;51.446;6.792;2023-02-26T09:44:33;3.20;14.80
46492;DHT22;32206;51.446;6.792;2023-02-26T09:50:45;3.20;1.00
46492;DHT22;32206;51.446;6.792;2023-02-26T09:53:24;3.40;1.00
46492;DHT22;32206;51.446;6.792;2023-02-26T09:55:55;3.40;1.00
46492;DHT22;32206;51.446;6.792;2023-02-26T09:58:30;3.40;1.00
46492;DHT22;32206;51.446;6.792;2023-02-26T10:03:56;3.30;99.90
46492;DHT22;32206;51.446;6.792;2023-02-26T10:09:55;3.50;1.00
46492;DHT22;32206;51.446;6.792;2023-02-26T10:15:44;3.60;99.90
46492;DHT22;32206;51.446;6.792;2023-02-26T10:18:17;3.70;99.90
46492;DHT22;32206;51.446;6.792;2023-02-26T10:26:06;3.80;99.90
46492;DHT22;32206;51.446;6.792;2023-02-26T10:28:47;3.90;99.90
46492;DHT22;32206;51.446;6.792;2023-02-26T10:42:24;4.40;99.90
46492;DHT22;32206;51.446;6.792;2023-02-26T10:45:10;4.80;1.00
46492;DHT22;32206;51.446;6.792;2023-02-26T10:47:54;5.00;99.90
46492;DHT22;32206;51.446;6.792;2023-02-26T10:50:22;5.20;99.90
46492;DHT22;32206;51.446;6.792;2023-02-26T10:52:49;5.50;99.90
46492;DHT22;32206;51.446;6.792;2023-02-26T10:58:08;5.40;1.00
46492;DHT22;32206;51.446;6.792;2023-02-26T11:00:35;5.40;1.00
46492;DHT22;32206;51.446;6.792;2023-02-26T11:03:03;5.50;1.00
46492;DHT22;32206;51.446;6.792;2023-02-26T11:05:36;5.70;1.00
46492;DHT22;32206;51.446;6.792;2023-02-26T11:08:23;5.80;1.00
46492;DHT22;32206;51.446;6.792;2023-02-26T11:10:52;6.20;1.00
46492;DHT22;32206;51.446;6.792;2023-02-26T11:13:21;6.50;1.00
46492;DHT22;32206;51.446;6.792;2023-02-26T11:15:50;6.50;1.00
46492;DHT22;32206;51.446;6.792;2023-02-26T11:18:26;6.70;1.00
46492;DHT22;32206;51.446;6.792;2023-02-26T11:20:57;6.90;1.00
46492;DHT22;32206;51.446;6.792;2023-02-26T11:23:26;7.20;99.90
46492;DHT22;32206;51.446;6.792;2023-02-26T11:26:05;7.30;99.90
46492;DHT22;32206;51.446;6.792;2023-02-26T11:28:48;7.50;99.90
46492;DHT22;32206;51.446;6.792;2023-02-26T11:31:17;7.60;99.90
46492;DHT22;32206;51.446;6.792;2023-02-26T11:33:47;7.60;99.90
46492;DHT22;32206;51.446;6.792;2023-02-26T11:39:59;7.90;99.90
46492;DHT22;32206;51.446;6.792;2023-02-26T11:42:28;8.20;99.90
46492;DHT22;32206;51.446;6.792;2023-02-26T11:44:54;8.10;99.90
46492;DHT22;32206;51.446;6.792;2023-02-26T11:47:25;8.00;99.90
46492;DHT22;32206;51.446;6.792;2023-02-26T11:49:59;8.30;99.90
46492;DHT22;32206;51.446;6.792;2023-02-26T11:52:32;8.50;99.90
46492;DHT22;32206;51.446;6.792;2023-02-26T11:55:04;8.80;99.90
46492;DHT22;32206;51.446;6.792;2023-02-26T11:57:32;8.90;98.40
46492;DHT22;32206;51.446;6.792;2023-02-26T11:59:59;9.20;95.90
46492;DHT22;32206;51.446;6.792;2023-02-26T12:02:30;9.40;93.50
46492;DHT22;32206;51.446;6.792;2023-02-26T12:05:00;9.70;90.20
46492;DHT22;32206;51.446;6.792;2023-02-26T12:07:28;9.80;84.10
46492;DHT22;32206;51.446;6.792;2023-02-26T12:09:54;9.90;72.20
46492;DHT22;32206;51.446;6.792;2023-02-26T12:26:23;9.60;29.00
46492;DHT22;32206;51.446;6.792;2023-02-26T12:29:24;10.10;27.70
46492;DHT22;32206;51.446;6.792;2023-02-26T12:32:21;10.50;20.60
46492;DHT22;32206;51.446;6.792;2023-02-26T12:35:21;10.10;4.70
46492;DHT22;32206;51.446;6.792;2023-02-26T12:40:57;10.30;8.60
46492;DHT22;32206;51.446;6.792;2023-02-26T12:43:50;10.50;5.10
46492;DHT22;32206;51.446;6.792;2023-02-26T13:16:52;15.30;1.00
46492;DHT22;32206;51.446;6.792;2023-02-26T13:27:34;15.10;1.00
46492;DHT22;32206;51.446;6.792;2023-02-26T13:33:28;13.20;1.00
46492;DHT22;32206;51.446;6.792;2023-02-26T13:35:55;12.70;1.00
46492;DHT22;32206;51.446;6.792;2023-02-26T13:41:09;13.10;1.00
46492;DHT22;32206;51.446;6.792;2023-02-26T13:59:03;15.10;1.00
46492;DHT22;32206;51.446;6.792;2023-02-26T14:04:53;17.00;1.00
46492;DHT22;32206;51.446;6.792;2023-02-26T14:07:53;17.40;1.00
46492;DHT22;32206;51.446;6.792;2023-02-26T14:13:22;17.40;1.00
46492;DHT22;32206;51.446;6.792;2023-02-26T14:26:33;18.70;1.00
46492;DHT22;32206;51.446;6.792;2023-02-26T14:34:26;18.50;1.00
46492;DHT22;32206;51.446;6.792;2023-02-26T14:36:55;17.90;1.00
46492;DHT22;32206;51.446;6.792;2023-02-26T14:42:16;18.70;1.00
46492;DHT22;32206;51.446;6.792;2023-02-26T14:44:47;19.50;1.00
46492;DHT22;32206;51.446;6.792;2023-02-26T14:47:13;19.10;1.00
46492;DHT22;32206;51.446;6.792;2023-02-26T14:49:42;19.20;1.00
46492;DHT22;32206;51.446;6.792;2023-02-26T14:58:25;17.40;1.00
46492;DHT22;32206;51.446;6.792;2023-02-26T15:09:50;17.00;1.00
46492;DHT22;32206;51.446;6.792;2023-02-26T15:17:52;16.90;1.00
46492;DHT22;32206;51.446;6.792;2023-02-26T15:29:30;20.20;1.00
46492;DHT22;32206;51.446;6.792;2023-02-26T15:34:47;19.40;1.00
46492;DHT22;32206;51.446;6.792;2023-02-26T15:37:22;19.90;1.00
46492;DHT22;32206;51.446;6.792;2023-02-26T15:39:49;19.20;1.00
46492;DHT22;32206;51.446;6.792;2023-02-26T15:42:16;18.40;1.00
46492;DHT22;32206;51.446;6.792;2023-02-26T15:44:43;17.40;1.00
46492;DHT22;32206;51.446;6.792;2023-02-26T15:47:09;19.00;1.00
46492;DHT22;32206;51.446;6.792;2023-02-26T15:49:36;20.30;1.00
46492;DHT22;32206;51.446;6.792;2023-02-26T15:52:04;21.70;1.00
46492;DHT22;32206;51.446;6.792;2023-02-26T15:57:54;23.30;1.00
46492;DHT22;32206;51.446;6.792;2023-02-26T16:00:26;22.60;1.00
46492;DHT22;32206;51.446;6.792;2023-02-26T16:06:39;21.90;1.00
46492;DHT22;32206;51.446;6.792;2023-02-26T16:09:07;23.30;1.00
46492;DHT22;32206;51.446;6.792;2023-02-26T16:11:37;24.10;1.00
46492;DHT22;32206;51.446;6.792;2023-02-26T16:14:05;24.60;1.00
46492;DHT22;32206;51.446;6.792;2023-02-26T16:16:41;24.80;1.00
46492;DHT22;32206;51.446;6.792;2023-02-26T16:19:19;24.90;1.00
46492;DHT22;32206;51.446;6.792;2023-02-26T16:21:47;24.50;1.00
46492;DHT22;32206;51.446;6.792;2023-02-26T16:31:05;21.90;1.00
46492;DHT22;32206;51.446;6.792;2023-02-26T16:33:34;19.90;1.00
46492;DHT22;32206;51.446;6.792;2023-02-26T16:36:13;17.50;1.00
46492;DHT22;32206;51.446;6.792;2023-02-26T16:39:12;17.30;1.00
46492;DHT22;32206;51.446;6.792;2023-02-26T16:41:46;15.30;1.00
46492;DHT22;32206;51.446;6.792;2023-02-26T16:50:27;13.60;1.00
46492;DHT22;32206;51.446;6.792;2023-02-26T16:53:10;11.80;1.00
46492;DHT22;32206;51.446;6.792;2023-02-26T16:59:13;9.10;1.00
46492;DHT22;32206;51.446;6.792;2023-02-26T17:04:22;7.80;1.00
46492;DHT22;32206;51.446;6.792;2023-02-26T17:06:51;7.50;1.00
46492;DHT22;32206;51.446;6.792;2023-02-26T17:09:39;7.40;1.00
46492;DHT22;32206;51.446;6.792;2023-02-26T17:12:16;7.10;1.00
46492;DHT22;32206;51.446;6.792;2023-02-26T17:14:44;6.80;1.00
46492;DHT22;32206;51.446;6.792;2023-02-26T17:17:10;6.60;1.00
46492;DHT22;32206;51.446;6.792;2023-02-26T17:19:37;6.50;1.00
46492;DHT22;32206;51.446;6.792;2023-02-26T17:22:03;6.30;1.00
46492;DHT22;32206;51.446;6.792;2023-02-26T17:24:33;6.20;1.00
46492;DHT22;32206;51.446;6.792;2023-02-26T17:30:22;5.90;1.00
46492;DHT22;32206;51.446;6.792;2023-02-26T17:32:54;5.70;1.00
46492;DHT22;32206;51.446;6.792;2023-02-26T17:35:20;5.60;1.00
46492;DHT22;32206;51.446;6.792;2023-02-26T17:37:45;5.40;1.00
46492;DHT22;32206;51.446;6.792;2023-02-26T17:42:48;5.40;1.00
46492;DHT22;32206;51.446;6.792;2023-02-26T17:45:15;5.20;1.00
46492;DHT22;32206;51.446;6.792;2023-02-26T17:54:25;5.10;34.80
46492;DHT22;32206;51.446;6.792;2023-02-26T17:56:50;5.00;51.90
46492;DHT22;32206;51.446;6.792;2023-02-26T17:59:16;4.90;73.80
46492;DHT22;32206;51.446;6.792;2023-02-26T18:01:42;4.90;99.90
46492;DHT22;32206;51.446;6.792;2023-02-26T18:04:07;4.80;99.90
46492;DHT22;32206;51.446;6.792;2023-02-26T18:06:36;4.70;99.90
46492;DHT22;32206;51.446;6.792;2023-02-26T18:09:03;4.70;99.90
46492;DHT22;32206;51.446;6.792;2023-02-26T18:14:47;4.70;99.90
46492;DHT22;32206;51.446;6.792;2023-02-26T18:17:24;4.80;99.90
46492;DHT22;32206;51.446;6.792;2023-02-26T18:19:50;4.70;99.90
46492;DHT22;32206;51.446;6.792;2023-02-26T18:22:17;4.70;99.90
46492;DHT22;32206;51.446;6.792;2023-02-26T18:24:44;4.70;99.90
46492;DHT22;32206;51.446;6.792;2023-02-26T18:30:34;4.60;99.90
46492;DHT22;32206;51.446;6.792;2023-02-26T18:33:11;4.60;99.90
46492;DHT22;32206;51.446;6.792;2023-02-26T18:35:37;4.70;99.90
46492;DHT22;32206;51.446;6.792;2023-02-26T18:38:13;4.60;99.90
46492;DHT22;32206;51.446;6.792;2023-02-26T18:40:40;4.60;99.90
46492;DHT22;32206;51.446;6.792;2023-02-26T18:43:06;4.60;99.90
46492;DHT22;32206;51.446;6.792;2023-02-26T18:45:34;4.50;99.90
46492;DHT22;32206;51.446;6.792;2023-02-26T18:51:13;4.50;1.00
46492;DHT22;32206;51.446;6.792;2023-02-26T18:53:38;4.50;1.00
46492;DHT22;32206;51.446;6.792;2023-02-26T18:56:05;4.50;1.00
46492;DHT22;32206;51.446;6.792;2023-02-26T18:58:30;4.50;1.00
46492;DHT22;32206;51.446;6.792;2023-02-26T19:00:56;4.50;1.00
46492;DHT22;32206;51.446;6.792;2023-02-26T19:03:23;4.40;1.00
46492;DHT22;32206;51.446;6.792;2023-02-26T19:06:04;4.40;93.30
46492;DHT22;32206;51.446;6.792;2023-02-26T19:08:31;4.40;96.00
46492;DHT22;32206;51.446;6.792;2023-02-26T19:14:07;4.30;99.90
46492;DHT22;32206;51.446;6.792;2023-02-26T19:16:33;4.30;99.90
46492;DHT22;32206;51.446;6.792;2023-02-26T19:19:03;4.30;99.90
46492;DHT22;32206;51.446;6.792;2023-02-26T19:21:30;4.70;99.90
46492;DHT22;32206;51.446;6.792;2023-02-26T19:23:59;4.30;99.90
46492;DHT22;32206;51.446;6.792;2023-02-26T19:26:25;4.30;99.90
46492;DHT22;32206;51.446;6.792;2023-02-26T19:28:51;4.30;99.90
46492;DHT22;32206;51.446;6.792;2023-02-26T19:31:17;4.80;1.00
46492;DHT22;32206;51.446;6.792;2023-02-26T19:33:43;4.30;99.90
46492;DHT22;32206;51.446;6.792;2023-02-26T19:36:09;4.20;99.90
46492;DHT22;32206;51.446;6.792;2023-02-26T19:38:35;4.30;1.00
46492;DHT22;32206;51.446;6.792;2023-02-26T19:41:00;4.20;1.00
46492;DHT22;32206;51.446;6.792;2023-02-26T19:43:26;4.20;1.00
46492;DHT22;32206;51.446;6.792;2023-02-26T19:45:52;4.20;1.00
46492;DHT22;32206;51.446;6.792;2023-02-26T19:48:20;4.20;99.90
46492;DHT22;32206;51.446;6.792;2023-02-26T19:50:46;4.10;99.90
46492;DHT22;32206;51.446;6.792;2023-02-26T19:53:15;4.10;99.90
46492;DHT22;32206;51.446;6.792;2023-02-26T19:55:41;4.20;99.90
46492;DHT22;32206;51.446;6.792;2023-02-26T19:58:07;4.10;99.90
46492;DHT22;32206;51.446;6.792;2023-02-26T20:00:33;4.10;99.90
46492;DHT22;32206;51.446;6.792;2023-02-26T20:02:59;4.00;1.00
46492;DHT22;32206;51.446;6.792;2023-02-26T20:05:25;4.00;1.00
46492;DHT22;32206;51.446;6.792;2023-02-26T20:07:50;4.00;1.00
46492;DHT22;32206;51.446;6.792;2023-02-26T20:10:18;4.00;1.00
46492;DHT22;32206;51.446;6.792;2023-02-26T20:12:44;4.00;1.00
46492;DHT22;32206;51.446;6.792;2023-02-26T20:15:11;3.90;1.00
46492;DHT22;32206;51.446;6.792;2023-02-26T20:17:37;3.80;1.00
46492;DHT22;32206;51.446;6.792;2023-02-26T20:20:03;3.90;99.90
46492;DHT22;32206;51.446;6.792;2023-02-26T20:22:29;3.90;99.90
46492;DHT22;32206;51.446;6.792;2023-02-26T20:24:55;3.80;99.90
46492;DHT22;32206;51.446;6.792;2023-02-26T20:27:21;3.80;99.90
46492;DHT22;32206;51.446;6.792;2023-02-26T20:29:47;3.80;99.90
46492;DHT22;32206;51.446;6.792;2023-02-26T20:32:16;3.90;99.90
46492;DHT22;32206;51.446;6.792;2023-02-26T20:34:41;3.80;41.40
46492;DHT22;32206;51.446;6.792;2023-02-26T20:37:07;3.80;99.90
46492;DHT22;32206;51.446;6.792;2023-02-26T20:39:33;3.80;1.00
46492;DHT22;32206;51.446;6.792;2023-02-26T20:41:58;3.80;99.90
46492;DHT22;32206;51.446;6.792;2023-02-26T20:44:24;3.90;99.90
46492;DHT22;32206;51.446;6.792;2023-02-26T20:46:50;3.90;99.90
46492;DHT22;32206;51.446;6.792;2023-02-26T20:52:38;3.90;1.00
46492;DHT22;32206;51.446;6.792;2023-02-26T20:55:04;3.90;99.90
46492;DHT22;32206;51.446;6.792;2023-02-26T21:04:11;3.90;99.90
46492;DHT22;32206;51.446;6.792;2023-02-26T21:06:37;3.90;99.90
46492;DHT22;32206;51.446;6.792;2023-02-26T21:09:04;4.00;99.90
46492;DHT22;32206;51.446;6.792;2023-02-26T21:11:31;4.00;99.90
46492;DHT22;32206;51.446;6.792;2023-02-26T21:13:57;4.00;1.00
46492;DHT22;32206;51.446;6.792;2023-02-26T21:16:24;3.90;1.00
46492;DHT22;32206;51.446;6.792;2023-02-26T21:18:50;3.90;1.00
46492;DHT22;32206;51.446;6.792;2023-02-26T21:24:38;3.90;1.00
46492;DHT22;32206;51.446;6.792;2023-02-26T21:27:03;3.90;1.00
46492;DHT22;32206;51.446;6.792;2023-02-26T21:32:51;3.80;23.70
46492;DHT22;32206;51.446;6.792;2023-02-26T21:41:59;3.50;99.90
46492;DHT22;32206;51.446;6.792;2023-02-26T21:44:29;3.40;99.90
46492;DHT22;32206;51.446;6.792;2023-02-26T21:46:54;3.40;60.50
46492;DHT22;32206;51.446;6.792;2023-02-26T21:49:22;3.30;99.90
46492;DHT22;32206;51.446;6.792;2023-02-26T21:51:48;3.30;99.90
46492;DHT22;32206;51.446;6.792;2023-02-26T21:54:14;3.30;99.90
46492;DHT22;32206;51.446;6.792;2023-02-26T21:56:40;3.20;99.90
46492;DHT22;32206;51.446;6.792;2023-02-26T21:59:05;3.20;1.00
46492;DHT22;32206;51.446;6.792;2023-02-26T22:01:31;3.30;1.00
46492;DHT22;32206;51.446;6.792;2023-02-26T22:03:56;3.10;90.80
46492;DHT22;32206;51.446;6.792;2023-02-26T22:09:56;3.00;95.20
46492;DHT22;32206;51.446;6.792;2023-02-26T22:12:22;2.90;99.90
46492;DHT22;32206;51.446;6.792;2023-02-26T22:14:47;2.90;99.90
46492;DHT22;32206;51.446;6.792;2023-02-26T22:17:16;2.80;99.90
46492;DHT22;32206;51.446;6.792;2023-02-26T22:19:42;2.80;99.90
46492;DHT22;32206;51.446;6.792;2023-02-26T22:22:07;2.70;99.90
46492;DHT22;32206;51.446;6.792;2023-02-26T22:24:34;2.60;99.90
46492;DHT22;32206;51.446;6.792;2023-02-26T22:27:00;2.60;99.90
46492;DHT22;32206;51.446;6.792;2023-02-26T22:32:51;2.50;99.90
46492;DHT22;32206;51.446;6.792;2023-02-26T22:35:17;2.40;99.90
46492;DHT22;32206;51.446;6.792;2023-02-26T22:41:05;2.30;1.00
46492;DHT22;32206;51.446;6.792;2023-02-26T22:43:31;2.20;1.00
46492;DHT22;32206;51.446;6.792;2023-02-26T22:45:57;2.20;1.00
46492;DHT22;32206;51.446;6.792;2023-02-26T22:48:22;2.10;1.00
46492;DHT22;32206;51.446;6.792;2023-02-26T22:50:49;2.00;1.00
46492;DHT22;32206;51.446;6.792;2023-02-26T22:53:15;2.00;1.00
46492;DHT22;32206;51.446;6.792;2023-02-26T22:55:40;2.00;1.00
46492;DHT22;32206;51.446;6.792;2023-02-26T22:58:06;1.90;1.00
46492;DHT22;32206;51.446;6.792;2023-02-26T23:00:32;1.90;1.00
46492;DHT22;32206;51.446;6.792;2023-02-26T23:02:57;1.80;1.00
46492;DHT22;32206;51.446;6.792;2023-02-26T23:05:23;1.70;1.00
46492;DHT22;32206;51.446;6.792;2023-02-26T23:07:49;1.70;1.00
46492;DHT22;32206;51.446;6.792;2023-02-26T23:10:17;1.70;1.00
46492;DHT22;32206;51.446;6.792;2023-02-26T23:12:44;1.70;1.00
46492;DHT22;32206;51.446;6.792;2023-02-26T23:15:11;1.70;1.00
46492;DHT22;32206;51.446;6.792;2023-02-26T23:17:37;1.70;1.00
46492;DHT22;32206;51.446;6.792;2023-02-26T23:20:04;1.60;1.00
46492;DHT22;32206;51.446;6.792;2023-02-26T23:25:52;1.50;1.00
46492;DHT22;32206;51.446;6.792;2023-02-26T23:28:17;1.40;1.00
46492;DHT22;32206;51.446;6.792;2023-02-26T23:34:05;1.30;1.00
46492;DHT22;32206;51.446;6.792;2023-02-26T23:36:32;1.40;1.00
46492;DHT22;32206;51.446;6.792;2023-02-26T23:38:58;1.30;1.00